Observation data for Seminole on 05/17/2018      Previous  Date  Next       Current Mesonet Observations  Soil Data  Daily Summary Page  Observations in Plain Language
KSM1 170500Z 12011KT 22/12 A2997 RMK A01 T02170119  RH  055%=      5-min Rain = 0
KSM1 170505Z 12010KT 22/12 A2997 RMK A01 T02160119  RH  056%=      5-min Rain = 0
KSM1 170510Z 12011KT 22/12 A2997 RMK A01 T02160119  RH  056%=      5-min Rain = 0
KSM1 170515Z 12011KT 22/12 A2997 RMK A01 T02150119  RH  056%=      5-min Rain = 0
KSM1 170520Z 12013KT 22/12 A2997 RMK A01 T02150119  RH  057%=      5-min Rain = 0
KSM1 170525Z 12011G16KT 22/12 A2997 RMK A01 T02150119  RH  057%=      5-min Rain = 0
KSM1 170530Z 12011KT 21/12 A2997 RMK A01 T02140119  RH  057%=      5-min Rain = 0
KSM1 170535Z 12011KT 21/12 A2997 RMK A01 T02130119  RH  057%=      5-min Rain = 0
KSM1 170540Z 12011KT 21/12 A2997 RMK A01 T02120119  RH  057%=      5-min Rain = 0
KSM1 170545Z 12011KT 21/12 A2997 RMK A01 T02110119  RH  058%=      5-min Rain = 0
KSM1 170550Z 13012G17KT 21/12 A2997 RMK A01 T02110119  RH  058%=      5-min Rain = 0
KSM1 170555Z 13012KT 21/12 A2997 RMK A01 T02120118  RH  057%=      5-min Rain = 0
KSM1 170600Z 13012KT 21/12 A2997 RMK A01 T02130118  RH  057%=      5-min Rain = 0
KSM1 170605Z 13012KT 21/12 A2997 RMK A01 T02130117  RH  056%=      5-min Rain = 0
KSM1 170610Z 13011KT 21/12 A2997 RMK A01 T02130116  RH  056%=      5-min Rain = 0
KSM1 170615Z 13012KT 21/12 A2997 RMK A01 T02140116  RH  056%=      5-min Rain = 0
KSM1 170620Z 13011KT 21/12 A2997 RMK A01 T02140116  RH  055%=      5-min Rain = 0
KSM1 170625Z 13011KT 21/12 A2997 RMK A01 T02140115  RH  055%=      5-min Rain = 0
KSM1 170630Z 13011KT 21/12 A2997 RMK A01 T02130115  RH  055%=      5-min Rain = 0
KSM1 170635Z 12010KT 21/12 A2997 RMK A01 T02120115  RH  056%=      5-min Rain = 0
KSM1 170640Z 12010KT 21/12 A2997 RMK A01 T02110115  RH  056%=      5-min Rain = 0
KSM1 170645Z 12011KT 21/11 A2997 RMK A01 T02110114  RH  056%=      5-min Rain = 0
KSM1 170650Z 13010KT 21/12 A2997 RMK A01 T02110115  RH  056%=      5-min Rain = 0
KSM1 170655Z 13010KT 21/12 A2997 RMK A01 T02100115  RH  057%=      5-min Rain = 0
KSM1 170700Z 12010KT 21/12 A2997 RMK A01 T02090115  RH  057%=      5-min Rain = 0
KSM1 170705Z 12010KT 21/12 A2997 RMK A01 T02080116  RH  058%=      5-min Rain = 0
KSM1 170710Z 12010KT 21/12 A2997 RMK A01 T02070116  RH  058%=      5-min Rain = 0
KSM1 170715Z 12009KT 21/12 A2997 RMK A01 T02060116  RH  058%=      5-min Rain = 0
KSM1 170720Z 12008KT 20/12 A2997 RMK A01 T02040116  RH  059%=      5-min Rain = 0
KSM1 170725Z 12008KT 20/12 A2996 RMK A01 T02040116  RH  059%=      5-min Rain = 0
KSM1 170730Z 13008KT 20/12 A2997 RMK A01 T02030116  RH  060%=      5-min Rain = 0
KSM1 170735Z 12007KT 20/12 A2996 RMK A01 T02020116  RH  060%=      5-min Rain = 0
KSM1 170740Z 14006KT 20/12 A2996 RMK A01 T02010117  RH  060%=      5-min Rain = 0
KSM1 170745Z 14007KT 20/12 A2996 RMK A01 T02000117  RH  061%=      5-min Rain = 0
KSM1 170750Z 14007KT 20/12 A2996 RMK A01 T01990117  RH  061%=      5-min Rain = 0
KSM1 170755Z 14007KT 20/12 A2996 RMK A01 T01990116  RH  061%=      5-min Rain = 0
KSM1 170800Z 14007KT 20/12 A2996 RMK A01 T01970117  RH  062%=      5-min Rain = 0
KSM1 170805Z 14008KT 20/12 A2996 RMK A01 T01970117  RH  062%=      5-min Rain = 0
KSM1 170810Z 14008KT 20/12 A2996 RMK A01 T01960117  RH  062%=      5-min Rain = 0
KSM1 170815Z 14008KT 20/12 A2996 RMK A01 T01960117  RH  062%=      5-min Rain = 0
KSM1 170820Z 14008KT 20/12 A2995 RMK A01 T01950117  RH  063%=      5-min Rain = 0
KSM1 170825Z 14008KT 19/12 A2995 RMK A01 T01930117  RH  063%=      5-min Rain = 0
KSM1 170830Z 14008KT 19/12 A2995 RMK A01 T01920116  RH  064%=      5-min Rain = 0
KSM1 170835Z 14009KT 19/12 A2995 RMK A01 T01920116  RH  064%=      5-min Rain = 0
KSM1 170840Z 14009KT 19/12 A2995 RMK A01 T01920116  RH  064%=      5-min Rain = 0
KSM1 170845Z 15009KT 19/12 A2995 RMK A01 T01920116  RH  063%=      5-min Rain = 0
KSM1 170850Z 14009KT 19/12 A2995 RMK A01 T01920116  RH  063%=      5-min Rain = 0
KSM1 170855Z 14007KT 19/12 A2995 RMK A01 T01910116  RH  064%=      5-min Rain = 0
KSM1 170900Z 14007KT 19/12 A2995 RMK A01 T01890116  RH  065%=      5-min Rain = 0
KSM1 170905Z 14007KT 19/12 A2995 RMK A01 T01880116  RH  065%=      5-min Rain = 0
KSM1 170910Z 14008KT 19/12 A2995 RMK A01 T01880116  RH  065%=      5-min Rain = 0
KSM1 170915Z 14008KT 19/12 A2995 RMK A01 T01870116  RH  066%=      5-min Rain = 0
KSM1 170920Z 14008KT 19/12 A2995 RMK A01 T01860116  RH  066%=      5-min Rain = 0
KSM1 170925Z 14007KT 19/12 A2994 RMK A01 T01850116  RH  066%=      5-min Rain = 0
KSM1 170930Z 14007KT 18/12 A2994 RMK A01 T01830116  RH  067%=      5-min Rain = 0
KSM1 170935Z 15006KT 18/12 A2994 RMK A01 T01830115  RH  067%=      5-min Rain = 0
KSM1 170940Z 15007KT 18/12 A2994 RMK A01 T01820115  RH  067%=      5-min Rain = 0
KSM1 170945Z 15006KT 18/12 A2994 RMK A01 T01800115  RH  068%=      5-min Rain = 0
KSM1 170950Z 15006KT 18/12 A2994 RMK A01 T01790115  RH  069%=      5-min Rain = 0
KSM1 170955Z 15006KT 18/11 A2994 RMK A01 T01780114  RH  069%=      5-min Rain = 0
KSM1 171000Z 15006KT 18/12 A2994 RMK A01 T01780115  RH  069%=      5-min Rain = 0
KSM1 171005Z 15006KT 18/11 A2994 RMK A01 T01770114  RH  069%=      5-min Rain = 0
KSM1 171010Z 15006KT 18/11 A2994 RMK A01 T01750114  RH  070%=      5-min Rain = 0
KSM1 171015Z 16006KT 17/11 A2994 RMK A01 T01730114  RH  071%=      5-min Rain = 0
KSM1 171020Z 16006KT 17/11 A2994 RMK A01 T01720113  RH  071%=      5-min Rain = 0
KSM1 171025Z 16006KT 17/11 A2994 RMK A01 T01710113  RH  071%=      5-min Rain = 0
KSM1 171030Z 15006KT 17/11 A2994 RMK A01 T01710113  RH  071%=      5-min Rain = 0
KSM1 171035Z 14006KT 17/11 A2994 RMK A01 T01680114  RH  073%=      5-min Rain = 0
KSM1 171040Z 14006KT 17/11 A2993 RMK A01 T01650114  RH  075%=      5-min Rain = 0
KSM1 171045Z 14006KT 16/12 A2993 RMK A01 T01640115  RH  075%=      5-min Rain = 0
KSM1 171050Z 14005KT 16/12 A2993 RMK A01 T01630115  RH  076%=      5-min Rain = 0
KSM1 171055Z 14005KT 16/12 A2993 RMK A01 T01630115  RH  076%=      5-min Rain = 0
KSM1 171100Z 14005KT 16/11 A2993 RMK A01 T01620114  RH  076%=      5-min Rain = 0
KSM1 171105Z 14005KT 16/11 A2993 RMK A01 T01600114  RH  077%=      5-min Rain = 0
KSM1 171110Z 14005KT 16/12 A2993 RMK A01 T01590115  RH  078%=      5-min Rain = 0
KSM1 171115Z 13004KT 16/12 A2993 RMK A01 T01590115  RH  078%=      5-min Rain = 0
KSM1 171120Z 12005KT 16/12 A2993 RMK A01 T01590116  RH  079%=      5-min Rain = 0
KSM1 171125Z 10005KT 16/11 A2993 RMK A01 T01560113  RH  078%=      5-min Rain = 0
KSM1 171130Z 10005KT 15/11 A2993 RMK A01 T01510108  RH  078%=      5-min Rain = 0
KSM1 171135Z 10005KT 15/11 A2993 RMK A01 T01490109  RH  079%=      5-min Rain = 0
KSM1 171140Z 11005KT 15/11 A2993 RMK A01 T01520111  RH  080%=      5-min Rain = 0
KSM1 171145Z 11004KT 15/11 A2993 RMK A01 T01530112  RH  079%=      5-min Rain = 0
KSM1 171150Z 10005KT 15/11 A2993 RMK A01 T01530111  RH  079%=      5-min Rain = 0
KSM1 171155Z 09006KT 15/11 A2993 RMK A01 T01500107  RH  078%=      5-min Rain = 0
KSM1 171200Z 08005KT 15/11 A2993 RMK A01 T01490108  RH  079%=      5-min Rain = 0
KSM1 171205Z 08005KT 15/11 A2993 RMK A01 T01490107  RH  079%=      5-min Rain = 0
KSM1 171210Z 10005KT 15/11 A2994 RMK A01 T01510108  RH  078%=      5-min Rain = 0
KSM1 171215Z 11005KT 15/11 A2993 RMK A01 T01530110  RH  078%=      5-min Rain = 0
KSM1 171220Z 11004KT 16/11 A2994 RMK A01 T01570112  RH  077%=      5-min Rain = 0
KSM1 171225Z 11003KT 16/11 A2994 RMK A01 T01610113  RH  076%=      5-min Rain = 0
KSM1 171230Z 09004KT 16/11 A2994 RMK A01 T01630110  RH  074%=      5-min Rain = 0
KSM1 171235Z 09006KT 16/11 A2994 RMK A01 T01630110  RH  073%=      5-min Rain = 0
KSM1 171240Z 09006KT 17/11 A2994 RMK A01 T01660111  RH  072%=      5-min Rain = 0
KSM1 171245Z 09006KT 17/11 A2994 RMK A01 T01690111  RH  071%=      5-min Rain = 0
KSM1 171250Z 10005KT 17/11 A2994 RMK A01 T01710113  RH  071%=      5-min Rain = 0
KSM1 171255Z 11006KT 17/12 A2994 RMK A01 T01740115  RH  071%=      5-min Rain = 0
KSM1 171300Z 12006KT 18/12 A2994 RMK A01 T01770117  RH  070%=      5-min Rain = 0
KSM1 171305Z 12006KT 18/12 A2994 RMK A01 T01800118  RH  070%=      5-min Rain = 0
KSM1 171310Z 13006KT 18/12 A2994 RMK A01 T01830118  RH  068%=      5-min Rain = 0
KSM1 171315Z 12006KT 19/12 A2994 RMK A01 T01880119  RH  067%=      5-min Rain = 0
KSM1 171320Z 13006KT 19/12 A2994 RMK A01 T01910120  RH  066%=      5-min Rain = 0
KSM1 171325Z 13007KT 20/12 A2994 RMK A01 T01950120  RH  064%=      5-min Rain = 0
KSM1 171330Z 13008KT 20/12 A2994 RMK A01 T01990120  RH  063%=      5-min Rain = 0
KSM1 171335Z 14006KT 20/12 A2994 RMK A01 T02020121  RH  062%=      5-min Rain = 0
KSM1 171340Z 14007KT 21/12 A2994 RMK A01 T02060120  RH  060%=      5-min Rain = 0
KSM1 171345Z 14008KT 21/12 A2994 RMK A01 T02080120  RH  059%=      5-min Rain = 0
KSM1 171350Z 15008KT 21/12 A2994 RMK A01 T02110120  RH  058%=      5-min Rain = 0
KSM1 171355Z 15008KT 21/12 A2994 RMK A01 T02140120  RH  057%=      5-min Rain = 0
KSM1 171400Z 15008G14KT 22/12 A2994 RMK A01 T02200121  RH  056%=      5-min Rain = 0
KSM1 171405Z 16009KT 22/12 A2994 RMK A01 T02240121  RH  054%=      5-min Rain = 0
KSM1 171410Z 15010KT 23/12 A2994 RMK A01 T02270121  RH  053%=      5-min Rain = 0
KSM1 171415Z 15011KT 23/12 A2994 RMK A01 T02290121  RH  052%=      5-min Rain = 0
KSM1 171420Z 15010KT 23/12 A2994 RMK A01 T02310121  RH  052%=      5-min Rain = 0
KSM1 171425Z 16010KT 24/12 A2994 RMK A01 T02350121  RH  051%=      5-min Rain = 0
KSM1 171430Z 15012KT 24/12 A2994 RMK A01 T02380121  RH  049%=      5-min Rain = 0
KSM1 171435Z 15011KT 24/12 A2994 RMK A01 T02390121  RH  049%=      5-min Rain = 0
KSM1 171440Z 16011KT 24/12 A2994 RMK A01 T02430120  RH  048%=      5-min Rain = 0
KSM1 171445Z 17011KT 24/12 A2994 RMK A01 T02410120  RH  048%=      5-min Rain = 0
KSM1 171450Z 16012KT 25/12 A2994 RMK A01 T02450120  RH  047%=      5-min Rain = 0
KSM1 171455Z 16013KT 25/12 A2994 RMK A01 T02460120  RH  047%=      5-min Rain = 0
KSM1 171500Z 16010KT 25/12 A2994 RMK A01 T02500121  RH  046%=      5-min Rain = 0
KSM1 171505Z 17012KT 25/12 A2994 RMK A01 T02530120  RH  045%=      5-min Rain = 0
KSM1 171510Z 17013KT 25/12 A2994 RMK A01 T02540119  RH  045%=      5-min Rain = 0
KSM1 171515Z 16013KT 25/12 A2994 RMK A01 T02530120  RH  045%=      5-min Rain = 0
KSM1 171520Z 16012KT 25/12 A2994 RMK A01 T02540120  RH  045%=      5-min Rain = 0
KSM1 171525Z 16011KT 26/12 A2994 RMK A01 T02600120  RH  043%=      5-min Rain = 0
KSM1 171530Z 15011KT 26/12 A2994 RMK A01 T02630120  RH  043%=      5-min Rain = 0
KSM1 171535Z 16010G15KT 27/12 A2994 RMK A01 T02670119  RH  041%=      5-min Rain = 0
KSM1 171540Z 17012KT 27/12 A2994 RMK A01 T02720116  RH  039%=      5-min Rain = 0
KSM1 171545Z 16011KT 28/12 A2994 RMK A01 T02780116  RH  038%=      5-min Rain = 0
KSM1 171550Z 16012KT 28/12 A2994 RMK A01 T02770115  RH  038%=      5-min Rain = 0
KSM1 171555Z 16013KT 28/12 A2994 RMK A01 T02770116  RH  038%=      5-min Rain = 0
KSM1 171600Z 16012G17KT 28/11 A2994 RMK A01 T02820114  RH  037%=      5-min Rain = 0
KSM1 171605Z 16011KT 28/11 A2994 RMK A01 T02830113  RH  036%=      5-min Rain = 0
KSM1 171610Z 17012KT 29/11 A2994 RMK A01 T02880112  RH  035%=      5-min Rain = 0
KSM1 171615Z 17013KT 29/11 A2994 RMK A01 T02900112  RH  034%=      5-min Rain = 0
KSM1 171620Z 17013KT 29/11 A2993 RMK A01 T02940110  RH  033%=      5-min Rain = 0
KSM1 171625Z 16012G17KT 29/11 A2993 RMK A01 T02940110  RH  033%=      5-min Rain = 0
KSM1 171630Z 15011KT 30/11 A2993 RMK A01 T03000111  RH  032%=      5-min Rain = 0
KSM1 171635Z 17012G18KT 31/11 A2993 RMK A01 T03050109  RH  031%=      5-min Rain = 0
KSM1 171640Z 17012G17KT 31/11 A2992 RMK A01 T03100108  RH  030%=      5-min Rain = 0
KSM1 171645Z 16012KT 31/11 A2992 RMK A01 T03120110  RH  030%=      5-min Rain = 0
KSM1 171650Z 19013G18KT 32/11 A2993 RMK A01 T03150107  RH  029%=      5-min Rain = 0
KSM1 171655Z 17012G18KT 32/11 A2993 RMK A01 T03170107  RH  028%=      5-min Rain = 0
KSM1 171700Z 19011G17KT 32/11 A2993 RMK A01 T03170105  RH  028%=      5-min Rain = 0
KSM1 171705Z 18012G17KT 32/10 A2992 RMK A01 T03230103  RH  027%=      5-min Rain = 0
KSM1 171710Z 16013KT 33/10 A2992 RMK A01 T03260104  RH  026%=      5-min Rain = 0
KSM1 171715Z 18013G20KT 33/10 A2992 RMK A01 T03300100  RH  025%=      5-min Rain = 0
KSM1 171720Z 18011G16KT 33/10 A2992 RMK A01 T03300097  RH  025%=      5-min Rain = 0
KSM1 171725Z 19011KT 33/10 A2991 RMK A01 T03280099  RH  025%=      5-min Rain = 0
KSM1 171730Z 18013G19KT 34/10 A2991 RMK A01 T03350097  RH  024%=      5-min Rain = 0
KSM1 171735Z 18011G19KT 34/10 A2991 RMK A01 T03370096  RH  024%=      5-min Rain = 0
KSM1 171740Z 19011G17KT 34/09 A2991 RMK A01 T03390091  RH  023%=      5-min Rain = 0
KSM1 171745Z 18010KT 34/09 A2991 RMK A01 T03400092  RH  023%=      5-min Rain = 0
KSM1 171750Z 20012G17KT 34/09 A2991 RMK A01 T03390091  RH  022%=      5-min Rain = 0
KSM1 171755Z 20012G18KT 34/09 A299 RMK A01 T03420089  RH  022%=      5-min Rain = 0
KSM1 171800Z 18011KT 34/09 A299 RMK A01 T03420087  RH  022%=      5-min Rain = 0
KSM1 171805Z 17011G17KT 34/09 A299 RMK A01 T03430088  RH  022%=      5-min Rain = 0
KSM1 171810Z 18014G20KT 35/08 A299 RMK A01 T03470084  RH  020%=      5-min Rain = 0
KSM1 171815Z 19014G20KT 35/08 A299 RMK A01 T03490080  RH  020%=      5-min Rain = 0
KSM1 171820Z 18010G15KT 35/08 A2989 RMK A01 T03510083  RH  020%=      5-min Rain = 0
KSM1 171825Z 20012G19KT 35/08 A2989 RMK A01 T03510078  RH  019%=      5-min Rain = 0
KSM1 171830Z 20010KT 35/08 A2989 RMK A01 T03500077  RH  019%=      5-min Rain = 0
KSM1 171835Z 19010G15KT 35/08 A2989 RMK A01 T03520076  RH  019%=      5-min Rain = 0
KSM1 171840Z 19012G17KT 35/07 A2988 RMK A01 T03540074  RH  018%=      5-min Rain = 0
KSM1 171845Z 19010G16KT 36/07 A2988 RMK A01 T03560074  RH  018%=      5-min Rain = 0
KSM1 171850Z 16013G20KT 36/08 A2988 RMK A01 T03570076  RH  018%=      5-min Rain = 0
KSM1 171855Z 18013G18KT 36/07 A2987 RMK A01 T03590073  RH  018%=      5-min Rain = 0
KSM1 171900Z 17010G16KT 36/06 A2987 RMK A01 T03630062  RH  016%=      5-min Rain = 0
KSM1 171905Z 18010G19KT 37/07 A2987 RMK A01 T03650067  RH  016%=      5-min Rain = 0
KSM1 171910Z 19012G17KT 37/06 A2987 RMK A01 T03650064  RH  016%=      5-min Rain = 0
KSM1 171915Z 18015G22KT 37/06 A2987 RMK A01 T03650060  RH  016%=      5-min Rain = 0
KSM1 171920Z 18011G18KT 37/06 A2986 RMK A01 T03670061  RH  016%=      5-min Rain = 0
KSM1 171925Z 17011G21KT 36/06 A2986 RMK A01 T03630062  RH  016%=      5-min Rain = 0
KSM1 171930Z 19014G19KT 36/06 A2986 RMK A01 T03630062  RH  016%=      5-min Rain = 0
KSM1 171935Z 17013G18KT 36/06 A2985 RMK A01 T03610059  RH  016%=      5-min Rain = 0
KSM1 171940Z 19016G22KT 37/06 A2985 RMK A01 T03650056  RH  015%=      5-min Rain = 0
KSM1 171945Z 20013G21KT 37/06 A2985 RMK A01 T03670056  RH  015%=      5-min Rain = 0
KSM1 171950Z 19012G20KT 36/06 A2984 RMK A01 T03590056  RH  016%=      5-min Rain = 0
KSM1 171955Z 18016G22KT 36/06 A2984 RMK A01 T03610056  RH  016%=      5-min Rain = 0
KSM1 172000Z 18012G19KT 37/05 A2983 RMK A01 T03650052  RH  015%=      5-min Rain = 0
KSM1 172005Z 18012G20KT 37/06 A2983 RMK A01 T03680056  RH  015%=      5-min Rain = 0
KSM1 172010Z 17013G21KT 37/06 A2983 RMK A01 T03680055  RH  015%=      5-min Rain = 0
KSM1 172015Z 17012G24KT 36/06 A2982 RMK A01 T03570056  RH  016%=      5-min Rain = 0
KSM1 172020Z 19013KT 36/05 A2982 RMK A01 T03590053  RH  015%=      5-min Rain = 0
KSM1 172025Z 18015G22KT 37/06 A2982 RMK A01 T03690056  RH  015%=      5-min Rain = 0
KSM1 172030Z 20013G19KT 36/05 A2982 RMK A01 T03600050  RH  015%=      5-min Rain = 0
KSM1 172035Z 18013G24KT 36/05 A2981 RMK A01 T03630046  RH  014%=      5-min Rain = 0
KSM1 172040Z 18013G21KT 36/05 A2981 RMK A01 T03630050  RH  015%=      5-min Rain = 0
KSM1 172045Z 18014G25KT 35/05 A2981 RMK A01 T03540053  RH  016%=      5-min Rain = 0
KSM1 172050Z 19016G21KT 36/05 A2981 RMK A01 T03550049  RH  015%=      5-min Rain = 0
KSM1 172055Z 18014G19KT 35/05 A298 RMK A01 T03540054  RH  016%=      5-min Rain = 0
KSM1 172100Z 18014G21KT 35/06 A298 RMK A01 T03530055  RH  016%=      5-min Rain = 0
KSM1 172105Z 19016G22KT 35/05 A2979 RMK A01 T03520048  RH  015%=      5-min Rain = 0
KSM1 172110Z 18016G22KT 35/05 A2979 RMK A01 T03520051  RH  016%=      5-min Rain = 0
KSM1 172115Z 17011KT 35/05 A2978 RMK A01 T03520050  RH  016%=      5-min Rain = 0
KSM1 172120Z 18014G22KT 35/05 A2978 RMK A01 T03510051  RH  016%=      5-min Rain = 0
KSM1 172125Z 19016G21KT 35/05 A2979 RMK A01 T03470054  RH  017%=      5-min Rain = 0
KSM1 172130Z 19017G24KT 34/06 A2979 RMK A01 T03440062  RH  018%=      5-min Rain = 0
KSM1 172135Z 19017G22KT 34/06 A2979 RMK A01 T03420062  RH  018%=      5-min Rain = 0
KSM1 172140Z 19016G22KT 34/06 A2979 RMK A01 T03390063  RH  018%=      5-min Rain = 0
KSM1 172145Z 19016G21KT 34/06 A2979 RMK A01 T03380060  RH  018%=      5-min Rain = 0
KSM1 172150Z 20014G19KT 34/06 A298 RMK A01 T03370062  RH  019%=      5-min Rain = 0
KSM1 172155Z 22012G19KT 34/06 A2979 RMK A01 T03370055  RH  018%=      5-min Rain = 0
KSM1 172200Z 16014G19KT 34/04 A2978 RMK A01 T03390040  RH  016%=      5-min Rain = 0
KSM1 172205Z 17015G20KT 35/06 A2978 RMK A01 T03530059  RH  017%=      5-min Rain = 0
KSM1 172210Z 17016KT 36/06 A2978 RMK A01 T03600062  RH  016%=      5-min Rain = 0
KSM1 172215Z 19015G21KT 36/06 A2978 RMK A01 T03600061  RH  016%=      5-min Rain = 0
KSM1 172220Z 18017G22KT 35/06 A2978 RMK A01 T03520061  RH  017%=      5-min Rain = 0
KSM1 172225Z 19014KT 35/06 A2978 RMK A01 T03470061  RH  017%=      5-min Rain = 0
KSM1 172230Z 19014G20KT 35/06 A2978 RMK A01 T03480062  RH  017%=      5-min Rain = 0
KSM1 172235Z 18024G38KT 35/07 A2978 RMK A01 T03480066  RH  018%=      5-min Rain = 0
KSM1 172240Z 19030G40KT 33/07 A2979 RMK A01 T03330071  RH  020%=      5-min Rain = 0
KSM1 172245Z 19028G37KT 33/07 A2979 RMK A01 T03270069  RH  021%=      5-min Rain = 0
KSM1 172250Z 19026G33KT 32/07 A2979 RMK A01 T03230068  RH  021%=      5-min Rain = 0
KSM1 172255Z 18027G32KT 33/07 A2979 RMK A01 T03280067  RH  020%=      5-min Rain = 0
KSM1 172300Z 18022G28KT 33/06 A2978 RMK A01 T03310063  RH  019%=      5-min Rain = 0
KSM1 172305Z 18023G31KT 33/06 A2978 RMK A01 T03340060  RH  019%=      5-min Rain = 0
KSM1 172310Z 18023G30KT 33/06 A2978 RMK A01 T03340058  RH  018%=      5-min Rain = 0
KSM1 172315Z 18026G32KT 33/06 A2978 RMK A01 T03300062  RH  019%=      5-min Rain = 0
KSM1 172320Z 19022G30KT 33/06 A2978 RMK A01 T03260063  RH  020%=      5-min Rain = 0
KSM1 172325Z 18022G28KT 33/06 A2978 RMK A01 T03270056  RH  019%=      5-min Rain = 0
KSM1 172330Z 18022G32KT 33/05 A2978 RMK A01 T03280050  RH  018%=      5-min Rain = 0
KSM1 172335Z 18020G27KT 33/05 A2978 RMK A01 T03280050  RH  018%=      5-min Rain = 0
KSM1 172340Z 18020G26KT 33/06 A2977 RMK A01 T03290055  RH  018%=      5-min Rain = 0
KSM1 172345Z 18021G31KT 33/06 A2978 RMK A01 T03290058  RH  019%=      5-min Rain = 0
KSM1 172350Z 18025G31KT 32/06 A2977 RMK A01 T03240061  RH  020%=      5-min Rain = 0
KSM1 172355Z 18023G29KT 32/06 A2977 RMK A01 T03230061  RH  020%=      5-min Rain = 0
KSM1 180000Z 18021G28KT 32/07 A2977 RMK A01 T03220065  RH  021%=      5-min Rain = 0
KSM1 180005Z 18021G28KT 32/07 A2977 RMK A01 T03220068  RH  021%=      5-min Rain = 0
KSM1 180010Z 19021G26KT 32/07 A2977 RMK A01 T03220068  RH  021%=      5-min Rain = 0
KSM1 180015Z 18023G28KT 32/07 A2976 RMK A01 T03190069  RH  021%=      5-min Rain = 0
KSM1 180020Z 17020G26KT 32/07 A2976 RMK A01 T03160069  RH  022%=      5-min Rain = 0
KSM1 180025Z 18020G29KT 32/07 A2976 RMK A01 T03150069  RH  022%=      5-min Rain = 0
KSM1 180030Z 18019G25KT 31/07 A2976 RMK A01 T03130071  RH  023%=      5-min Rain = 0
KSM1 180035Z 18021G29KT 31/07 A2976 RMK A01 T03100068  RH  023%=      5-min Rain = 0
KSM1 180040Z 19020G25KT 31/07 A2976 RMK A01 T03080072  RH  023%=      5-min Rain = 0
KSM1 180045Z 18019G25KT 31/07 A2976 RMK A01 T03060073  RH  024%=      5-min Rain = 0
KSM1 180050Z 18019G26KT 30/07 A2976 RMK A01 T03030073  RH  024%=      5-min Rain = 0
KSM1 180055Z 18020G26KT 30/07 A2976 RMK A01 T03010074  RH  025%=      5-min Rain = 0
KSM1 180100Z 18019G24KT 30/08 A2976 RMK A01 T02990076  RH  025%=      5-min Rain = 0
KSM1 180105Z 19017G24KT 30/08 A2976 RMK A01 T02970075  RH  026%=      5-min Rain = 0
KSM1 180110Z 19019G26KT 30/07 A2976 RMK A01 T02970070  RH  025%=      5-min Rain = 0
KSM1 180115Z 19021G26KT 30/07 A2976 RMK A01 T02960066  RH  024%=      5-min Rain = 0
KSM1 180120Z 18016G22KT 30/06 A2976 RMK A01 T02950064  RH  024%=      5-min Rain = 0
KSM1 180125Z 18017G22KT 29/06 A2977 RMK A01 T02930060  RH  023%=      5-min Rain = 0
KSM1 180130Z 18016KT 29/06 A2977 RMK A01 T02920057  RH  023%=      5-min Rain = 0
KSM1 180135Z 18015G22KT 29/06 A2977 RMK A01 T02910057  RH  023%=      5-min Rain = 0
KSM1 180140Z 18014KT 29/06 A2977 RMK A01 T02890059  RH  024%=      5-min Rain = 0
KSM1 180145Z 18015KT 29/06 A2977 RMK A01 T02880061  RH  024%=      5-min Rain = 0
KSM1 180150Z 18015KT 29/06 A2978 RMK A01 T02870062  RH  025%=      5-min Rain = 0
KSM1 180155Z 18014G19KT 29/06 A2978 RMK A01 T02860064  RH  025%=      5-min Rain = 0
KSM1 180200Z 18015G20KT 29/07 A2978 RMK A01 T02850065  RH  026%=      5-min Rain = 0
KSM1 180205Z 18014G21KT 28/07 A2978 RMK A01 T02830067  RH  026%=      5-min Rain = 0
KSM1 180210Z 19015G21KT 28/07 A2978 RMK A01 T02820069  RH  027%=      5-min Rain = 0
KSM1 180215Z 19013G19KT 28/07 A2979 RMK A01 T02810069  RH  027%=      5-min Rain = 0
KSM1 180220Z 19013KT 28/07 A2979 RMK A01 T02790068  RH  027%=      5-min Rain = 0
KSM1 180225Z 19013G19KT 28/07 A2979 RMK A01 T02780068  RH  027%=      5-min Rain = 0
KSM1 180230Z 19012G19KT 28/07 A2979 RMK A01 T02750068  RH  027%=      5-min Rain = 0
KSM1 180235Z 19012KT 27/07 A2979 RMK A01 T02740068  RH  028%=      5-min Rain = 0
KSM1 180240Z 19013G18KT 27/07 A2979 RMK A01 T02720068  RH  028%=      5-min Rain = 0
KSM1 180245Z 19014KT 27/07 A298 RMK A01 T02720068  RH  028%=      5-min Rain = 0
KSM1 180250Z 19013G19KT 27/07 A298 RMK A01 T02700067  RH  028%=      5-min Rain = 0
KSM1 180255Z 19014G20KT 27/07 A298 RMK A01 T02690065  RH  028%=      5-min Rain = 0
KSM1 180300Z 19013G18KT 27/06 A2981 RMK A01 T02680064  RH  028%=      5-min Rain = 0
KSM1 180305Z 19011KT 27/06 A2981 RMK A01 T02670063  RH  028%=      5-min Rain = 0
KSM1 180310Z 19012G19KT 27/06 A2981 RMK A01 T02650062  RH  028%=      5-min Rain = 0
KSM1 180315Z 18013KT 27/06 A2982 RMK A01 T02650061  RH  028%=      5-min Rain = 0
KSM1 180320Z 19011KT 26/06 A2982 RMK A01 T02630061  RH  028%=      5-min Rain = 0
KSM1 180325Z 18012KT 26/06 A2982 RMK A01 T02630060  RH  028%=      5-min Rain = 0
KSM1 180330Z 18011KT 26/06 A2983 RMK A01 T02620060  RH  028%=      5-min Rain = 0
KSM1 180335Z 18012KT 26/06 A2983 RMK A01 T02600059  RH  028%=      5-min Rain = 0
KSM1 180340Z 18011KT 26/06 A2983 RMK A01 T02600059  RH  028%=      5-min Rain = 0
KSM1 180345Z 18011KT 26/06 A2983 RMK A01 T02590059  RH  029%=      5-min Rain = 0
KSM1 180350Z 18011KT 26/06 A2984 RMK A01 T02570059  RH  029%=      5-min Rain = 0
KSM1 180355Z 18012KT 26/06 A2984 RMK A01 T02570059  RH  029%=      5-min Rain = 0
KSM1 180400Z 18012KT 26/06 A2984 RMK A01 T02560059  RH  029%=      5-min Rain = 0
KSM1 180405Z 18011KT 26/06 A2984 RMK A01 T02550059  RH  029%=      5-min Rain = 0
KSM1 180410Z 18011KT 25/06 A2984 RMK A01 T02540059  RH  029%=      5-min Rain = 0
KSM1 180415Z 18012KT 25/06 A2985 RMK A01 T02530059  RH  029%=      5-min Rain = 0
KSM1 180420Z 18012G17KT 25/06 A2985 RMK A01 T02530059  RH  029%=      5-min Rain = 0
KSM1 180425Z 18012KT 25/06 A2985 RMK A01 T02530059  RH  029%=      5-min Rain = 0
KSM1 180430Z 18011KT 25/06 A2985 RMK A01 T02520059  RH  030%=      5-min Rain = 0
KSM1 180435Z 18011KT 25/06 A2985 RMK A01 T02500059  RH  030%=      5-min Rain = 0
KSM1 180440Z 17010KT 25/06 A2985 RMK A01 T02490059  RH  030%=      5-min Rain = 0
KSM1 180445Z 17010G15KT 25/06 A2985 RMK A01 T02470059  RH  031%=      5-min Rain = 0
KSM1 180450Z 18009KT 25/06 A2985 RMK A01 T02460059  RH  031%=      5-min Rain = 0
KSM1 180455Z 17009KT 25/06 A2985 RMK A01 T02450059  RH  031%=      5-min Rain = 0

Page generated in 0.0094 seconds.